Time;durP1;ratioP1;P1;durP2;ratioP2;P2;SDS_P1;SDS_P2;PMS_P1;PMS_P2;Temp;Humidity;BMP_temperature;BMP_pressure;BME280_temperature;BME280_humidity;BME280_pressure;Samples;Min_cycle;Max_cycle;Signal;HPM_P1;HPM_P2
2023/01/23 00:00:15;;;;;;;11.55;4.10;;;;;;;;;;5055241;28;20056;-70
2023/01/23 00:02:41;;;;;;;7.97;4.47;;;;;;;;;;5068979;28;20102;-70
2023/01/23 00:05:07;;;;;;;7.40;3.83;;;;;;;;;;5064977;28;20036;-70
2023/01/23 00:07:33;;;;;;;7.00;3.97;;;;;;;;;;5065881;28;20048;-70
2023/01/23 00:09:59;;;;;;;13.65;3.70;;;;;;;;;;5062207;28;20048;-70
2023/01/23 00:12:25;;;;;;;9.18;3.95;;;;;;;;;;5068243;28;20475;-69
2023/01/23 00:14:52;;;;;;;10.25;4.18;;;;;;;;;;5067939;28;20162;-70
2023/01/23 00:17:18;;;;;;;7.28;3.67;;;;;;;;;;5057615;28;20037;-70
2023/01/23 00:19:44;;;;;;;5.80;4.03;;;;;;;;;;5074251;28;20052;-69
2023/01/23 00:22:10;;;;;;;12.05;3.70;;;;;;;;;;5069086;28;20502;-70
2023/01/23 00:24:36;;;;;;;6.43;3.60;;;;;;;;;;5069829;28;20393;-70
2023/01/23 00:27:02;;;;;;;5.95;3.63;;;;;;;;;;5070207;28;20039;-71
2023/01/23 00:29:28;;;;;;;10.88;4.53;;;;;;;;;;5075229;28;20393;-70
2023/01/23 00:31:54;;;;;;;7.05;3.20;;;;;;;;;;5065337;28;20037;-70
2023/01/23 00:34:20;;;;;;;7.32;3.80;;;;;;;;;;5061678;28;20037;-70
2023/01/23 00:36:47;;;;;;;6.25;3.15;;;;;;;;;;5066466;28;20413;-70
2023/01/23 00:39:20;;;;;;;6.72;3.78;;;;;;;;;;5066591;28;20040;-70
2023/01/23 00:41:46;;;;;;;7.15;3.83;;;;;;;;;;5062370;28;20152;-70
2023/01/23 00:44:13;;;;;;;9.35;4.68;;;;;;;;;;5064230;28;20425;-70
2023/01/23 00:46:39;;;;;;;11.57;4.40;;;;;;;;;;5068064;28;20355;-70
2023/01/23 00:49:05;;;;;;;9.50;4.25;;;;;;;;;;5058381;28;20037;-70
2023/01/23 00:51:31;;;;;;;10.57;4.40;;;;;;;;;;5062601;28;20037;-70
2023/01/23 00:53:58;;;;;;;12.13;4.88;;;;;;;;;;5062968;28;20098;-70
2023/01/23 00:56:24;;;;;;;7.32;3.63;;;;;;;;;;5061885;28;20494;-70
2023/01/23 00:58:50;;;;;;;15.85;5.22;;;;;;;;;;5063467;28;20041;-70
2023/01/23 01:01:16;;;;;;;8.60;4.28;;;;;;;;;;5059777;28;20041;-70
2023/01/23 01:03:43;;;;;;;9.98;4.28;;;;;;;;;;5062810;28;20033;-70
2023/01/23 01:06:10;;;;;;;6.20;3.78;;;;;;;;;;5059878;28;20203;-70
2023/01/23 01:08:36;;;;;;;7.72;4.30;;;;;;;;;;5062369;28;20040;-70
2023/01/23 01:11:03;;;;;;;7.40;4.80;;;;;;;;;;5065237;28;20491;-70
2023/01/23 01:13:29;;;;;;;6.70;4.13;;;;;;;;;;5059241;28;20033;-70
2023/01/23 01:15:55;;;;;;;8.55;4.25;;;;;;;;;;5055636;28;20036;-70
2023/01/23 01:18:22;;;;;;;9.50;4.88;;;;;;;;;;5060300;28;20468;-71
2023/01/23 01:20:48;;;;;;;9.93;4.88;;;;;;;;;;5072258;28;20053;-70
2023/01/23 01:23:14;;;;;;;9.00;4.47;;;;;;;;;;5062401;28;20051;-70
2023/01/23 01:25:40;;;;;;;9.25;4.93;;;;;;;;;;5072119;28;20048;-69
2023/01/23 01:28:07;;;;;;;9.95;4.28;;;;;;;;;;5072779;28;20040;-70
2023/01/23 01:30:33;;;;;;;10.82;4.57;;;;;;;;;;5065986;28;20041;-70
2023/01/23 01:32:59;;;;;;;6.15;4.38;;;;;;;;;;5060555;28;20048;-70
2023/01/23 01:35:25;;;;;;;12.60;5.78;;;;;;;;;;5062040;28;20071;-70
2023/01/23 01:37:51;;;;;;;10.10;4.93;;;;;;;;;;5063086;28;20039;-70
2023/01/23 01:40:20;;;;;;;7.82;4.45;;;;;;;;;;5059843;28;20498;-70
2023/01/23 01:43:12;;;;;;;10.95;5.40;;;;;;;;;;5061799;28;20087;-70
2023/01/23 01:45:57;;;;;;;9.48;4.97;;;;;;;;;;5052583;28;20097;-70
2023/01/23 01:48:28;;;;;;;9.27;5.43;;;;;;;;;;5064758;28;20040;-70
2023/01/23 01:50:55;;;;;;;8.85;4.90;;;;;;;;;;5062122;28;20045;-70
2023/01/23 01:53:23;;;;;;;10.45;5.10;;;;;;;;;;5058357;28;20484;-70
2023/01/23 01:55:49;;;;;;;9.25;4.72;;;;;;;;;;5059799;28;20028;-70
2023/01/23 01:58:15;;;;;;;12.80;5.55;;;;;;;;;;5061362;28;20032;-70
2023/01/23 02:00:41;;;;;;;13.07;5.25;;;;;;;;;;5066582;28;20184;-70
2023/01/23 02:03:07;;;;;;;11.98;6.18;;;;;;;;;;5067548;28;20448;-70
2023/01/23 02:05:35;;;;;;;9.32;4.88;;;;;;;;;;5062823;28;20158;-69
2023/01/23 02:08:02;;;;;;;8.40;4.80;;;;;;;;;;5065749;28;20094;-70
2023/01/23 02:10:28;;;;;;;12.48;5.72;;;;;;;;;;5063083;28;20502;-70
2023/01/23 02:12:54;;;;;;;8.35;5.72;;;;;;;;;;5064888;28;20033;-70
2023/01/23 02:15:21;;;;;;;9.02;5.30;;;;;;;;;;5068637;28;20045;-70
2023/01/23 02:17:49;;;;;;;8.25;5.55;;;;;;;;;;5066103;28;20032;-70
2023/01/23 02:20:23;;;;;;;10.55;5.47;;;;;;;;;;5065171;28;20044;-71
2023/01/23 02:23:05;;;;;;;8.73;5.38;;;;;;;;;;5063347;28;20060;-69
2023/01/23 02:25:40;;;;;;;7.65;5.13;;;;;;;;;;5064146;28;20516;-70
2023/01/23 02:28:08;;;;;;;13.68;5.88;;;;;;;;;;5056568;28;20047;-70
2023/01/23 02:30:35;;;;;;;11.50;6.35;;;;;;;;;;5059665;28;20095;-70
2023/01/23 02:33:08;;;;;;;8.70;5.88;;;;;;;;;;5059557;28;20029;-70
2023/01/23 02:35:35;;;;;;;7.55;5.57;;;;;;;;;;5057384;28;20099;-70
2023/01/23 02:38:02;;;;;;;13.95;6.07;;;;;;;;;;5064716;28;20044;-70
2023/01/23 02:40:35;;;;;;;14.98;6.15;;;;;;;;;;5066241;28;20044;-70
2023/01/23 02:43:02;;;;;;;9.18;5.00;;;;;;;;;;5061469;28;20045;-70
2023/01/23 02:45:29;;;;;;;8.73;4.72;;;;;;;;;;5057040;28;20051;-69
2023/01/23 02:47:55;;;;;;;9.80;5.47;;;;;;;;;;5067172;28;20057;-70
2023/01/23 02:50:21;;;;;;;9.55;4.97;;;;;;;;;;5066158;28;20483;-70
2023/01/23 02:52:50;;;;;;;8.50;5.32;;;;;;;;;;5060756;28;20061;-70
2023/01/23 02:55:17;;;;;;;10.38;5.05;;;;;;;;;;5058619;28;20041;-70
2023/01/23 02:57:44;;;;;;;8.75;5.13;;;;;;;;;;5065178;28;20043;-70
2023/01/23 03:00:18;;;;;;;11.40;5.78;;;;;;;;;;5064212;28;20044;-70
2023/01/23 03:02:49;;;;;;;9.50;5.20;;;;;;;;;;5064251;28;20067;-69
2023/01/23 03:05:15;;;;;;;10.48;4.70;;;;;;;;;;5064339;28;20043;-70
2023/01/23 03:07:41;;;;;;;11.07;4.80;;;;;;;;;;5068425;28;20040;-70
2023/01/23 03:10:08;;;;;;;8.38;5.18;;;;;;;;;;5062824;28;20048;-70
2023/01/23 03:12:36;;;;;;;9.82;5.47;;;;;;;;;;5065910;28;20040;-70
2023/01/23 03:15:04;;;;;;;7.95;4.97;;;;;;;;;;5063877;28;20040;-70
2023/01/23 03:17:31;;;;;;;14.60;5.60;;;;;;;;;;5066347;28;20116;-70
2023/01/23 03:19:57;;;;;;;8.30;4.88;;;;;;;;;;5065487;28;20127;-70
2023/01/23 03:22:25;;;;;;;7.07;4.32;;;;;;;;;;5063116;28;20064;-70
2023/01/23 03:24:51;;;;;;;9.45;5.22;;;;;;;;;;5069350;28;20512;-70
2023/01/23 03:27:17;;;;;;;10.50;5.30;;;;;;;;;;5067421;28;20753;-70
2023/01/23 03:32:29;;;;;;;10.10;5.80;;;;;;;;;;5060227;28;20048;-70
2023/01/23 03:34:56;;;;;;;11.25;5.15;;;;;;;;;;5064562;28;20052;-70
2023/01/23 03:37:22;;;;;;;7.30;5.22;;;;;;;;;;5068777;28;20075;-70
2023/01/23 03:42:33;;;;;;;7.22;4.88;;;;;;;;;;5063412;28;20041;-70
2023/01/23 03:45:00;;;;;;;7.28;5.05;;;;;;;;;;5067645;28;20417;-70
2023/01/23 03:47:26;;;;;;;8.55;5.18;;;;;;;;;;5067940;28;20355;-70
2023/01/23 03:49:52;;;;;;;9.57;4.93;;;;;;;;;;5059268;28;20437;-70
2023/01/23 03:52:18;;;;;;;9.07;4.38;;;;;;;;;;5065635;28;20064;-70
2023/01/23 03:54:44;;;;;;;10.95;5.40;;;;;;;;;;5075986;28;20527;-70
2023/01/23 03:57:11;;;;;;;9.50;4.47;;;;;;;;;;5067528;28;20324;-70
2023/01/23 03:59:37;;;;;;;9.73;5.28;;;;;;;;;;5067058;28;20230;-70
2023/01/23 04:02:06;;;;;;;11.10;4.90;;;;;;;;;;5072195;28;20045;-70
2023/01/23 04:04:32;;;;;;;7.80;5.13;;;;;;;;;;5056332;28;20046;-70
2023/01/23 04:06:58;;;;;;;9.02;4.72;;;;;;;;;;5048414;28;20127;-70
2023/01/23 04:09:26;;;;;;;8.00;4.38;;;;;;;;;;5061601;28;20402;-71
2023/01/23 04:11:56;;;;;;;8.30;4.85;;;;;;;;;;5068471;28;20115;-70
2023/01/23 04:14:23;;;;;;;10.32;4.55;;;;;;;;;;5059162;28;20179;-70
2023/01/23 04:16:49;;;;;;;4.90;3.45;;;;;;;;;;5060159;28;20041;-70
2023/01/23 04:19:19;;;;;;;10.55;5.15;;;;;;;;;;5062511;28;20398;-70
2023/01/23 04:21:47;;;;;;;6.75;4.35;;;;;;;;;;5078603;28;20064;-70
2023/01/23 04:24:13;;;;;;;8.48;4.80;;;;;;;;;;5063996;28;20094;-70
2023/01/23 04:26:39;;;;;;;7.75;4.60;;;;;;;;;;5061738;28;20067;-70
2023/01/23 04:29:05;;;;;;;6.78;4.15;;;;;;;;;;5062352;28;20276;-71
2023/01/23 04:31:32;;;;;;;7.20;5.18;;;;;;;;;;5060333;28;20037;-70
2023/01/23 04:33:58;;;;;;;10.35;5.95;;;;;;;;;;5063246;28;20505;-70
2023/01/23 04:36:24;;;;;;;8.73;4.97;;;;;;;;;;5073567;28;20037;-70
2023/01/23 04:38:50;;;;;;;6.53;4.15;;;;;;;;;;5064126;28;20040;-70
2023/01/23 04:41:21;;;;;;;7.00;4.45;;;;;;;;;;5060808;28;20065;-70
2023/01/23 04:43:48;;;;;;;7.78;4.60;;;;;;;;;;5064291;28;20047;-70
2023/01/23 04:46:14;;;;;;;12.52;5.03;;;;;;;;;;5065537;28;20047;-70
2023/01/23 04:48:40;;;;;;;6.68;4.47;;;;;;;;;;5063134;28;20033;-70
2023/01/23 04:51:06;;;;;;;6.38;4.00;;;;;;;;;;5060261;28;20094;-70
2023/01/23 04:53:32;;;;;;;11.15;5.45;;;;;;;;;;5062959;28;20051;-70
2023/01/23 04:55:58;;;;;;;9.75;4.30;;;;;;;;;;5064024;28;20033;-70
2023/01/23 04:58:24;;;;;;;5.72;4.28;;;;;;;;;;5061517;28;20041;-70
2023/01/23 05:00:51;;;;;;;7.88;4.80;;;;;;;;;;5067597;28;20136;-70
2023/01/23 05:03:17;;;;;;;9.27;4.70;;;;;;;;;;5060386;28;20032;-70
2023/01/23 05:05:43;;;;;;;9.55;4.95;;;;;;;;;;5060277;28;20033;-69
2023/01/23 05:08:12;;;;;;;9.48;5.07;;;;;;;;;;5058764;28;20055;-70
2023/01/23 05:10:39;;;;;;;15.82;5.10;;;;;;;;;;5065755;28;20072;-70
2023/01/23 05:13:05;;;;;;;7.82;4.93;;;;;;;;;;5064634;28;20051;-70
2023/01/23 05:15:31;;;;;;;8.82;4.10;;;;;;;;;;5059693;28;20116;-70
2023/01/23 05:17:57;;;;;;;10.68;4.68;;;;;;;;;;5057569;28;20041;-70
2023/01/23 05:20:24;;;;;;;9.80;4.30;;;;;;;;;;5057078;28;20033;-70
2023/01/23 05:22:53;;;;;;;9.10;5.15;;;;;;;;;;5054029;28;20446;-70
2023/01/23 05:25:20;;;;;;;7.85;4.65;;;;;;;;;;5058191;28;20126;-70
2023/01/23 05:27:46;;;;;;;6.28;4.82;;;;;;;;;;5054676;28;20087;-70
2023/01/23 05:30:12;;;;;;;9.05;4.70;;;;;;;;;;5057973;28;20280;-70
2023/01/23 05:32:38;;;;;;;9.93;5.22;;;;;;;;;;5060322;28;20029;-70
2023/01/23 05:35:05;;;;;;;8.85;4.63;;;;;;;;;;5058234;28;20037;-70
2023/01/23 05:37:31;;;;;;;6.68;4.63;;;;;;;;;;5056235;28;20060;-70
2023/01/23 05:39:57;;;;;;;10.73;5.43;;;;;;;;;;5049470;28;20055;-70
2023/01/23 05:42:23;;;;;;;6.28;4.40;;;;;;;;;;5049643;28;20036;-70
2023/01/23 05:44:49;;;;;;;8.10;5.38;;;;;;;;;;5055906;28;20506;-70
2023/01/23 05:47:15;;;;;;;13.57;6.03;;;;;;;;;;5051292;28;20055;-70
2023/01/23 05:49:41;;;;;;;9.75;5.60;;;;;;;;;;5051426;28;20068;-70
2023/01/23 05:52:08;;;;;;;8.30;5.13;;;;;;;;;;5049371;28;20509;-70
2023/01/23 05:54:34;;;;;;;9.38;4.70;;;;;;;;;;5048572;28;20487;-70
2023/01/23 05:57:00;;;;;;;9.88;5.43;;;;;;;;;;5061782;28;20098;-70
2023/01/23 05:59:26;;;;;;;9.15;4.82;;;;;;;;;;5053825;28;20040;-70
2023/01/23 06:01:52;;;;;;;7.10;5.47;;;;;;;;;;5055389;28;20490;-70
2023/01/23 06:04:18;;;;;;;10.50;6.18;;;;;;;;;;5051636;28;20043;-70
2023/01/23 06:06:44;;;;;;;8.48;5.20;;;;;;;;;;5056764;28;20591;-70
2023/01/23 06:09:11;;;;;;;9.70;5.43;;;;;;;;;;5063970;28;20040;-70
2023/01/23 06:11:37;;;;;;;9.35;5.20;;;;;;;;;;5063321;28;20063;-70
2023/01/23 06:14:03;;;;;;;13.48;6.05;;;;;;;;;;5047061;28;20055;-70
2023/01/23 06:16:30;;;;;;;10.15;6.20;;;;;;;;;;5056907;28;20419;-70
2023/01/23 06:18:57;;;;;;;9.00;5.90;;;;;;;;;;5060360;28;20040;-70
2023/01/23 06:21:23;;;;;;;9.85;6.25;;;;;;;;;;5062487;28;20048;-69
2023/01/23 06:23:49;;;;;;;9.18;5.82;;;;;;;;;;5054151;28;20049;-70
2023/01/23 06:26:15;;;;;;;11.73;6.93;;;;;;;;;;5057231;28;20124;-70
2023/01/23 06:28:41;;;;;;;11.40;6.07;;;;;;;;;;5063946;28;20474;-70
2023/01/23 06:31:09;;;;;;;10.80;6.78;;;;;;;;;;5056820;28;20466;-70
2023/01/23 06:33:35;;;;;;;9.07;6.50;;;;;;;;;;5056859;28;20044;-71
2023/01/23 06:36:03;;;;;;;9.73;6.55;;;;;;;;;;5059847;28;20036;-70
2023/01/23 06:38:29;;;;;;;8.95;6.57;;;;;;;;;;5060520;28;20044;-70
2023/01/23 06:40:55;;;;;;;9.30;6.75;;;;;;;;;;5058648;28;20419;-70
2023/01/23 06:43:22;;;;;;;11.93;7.25;;;;;;;;;;5056388;28;20472;-70
2023/01/23 06:45:48;;;;;;;11.07;6.55;;;;;;;;;;5058484;28;20041;-69
2023/01/23 06:48:15;;;;;;;11.88;8.10;;;;;;;;;;5048502;28;20040;-70
2023/01/23 06:50:41;;;;;;;10.73;6.97;;;;;;;;;;5052680;28;20123;-70
2023/01/23 06:53:08;;;;;;;12.82;7.30;;;;;;;;;;5054775;28;20120;-70
2023/01/23 06:55:35;;;;;;;11.70;8.02;;;;;;;;;;5060138;28;20811;-71
2023/01/23 06:58:01;;;;;;;12.10;7.43;;;;;;;;;;5054856;28;20191;-70
2023/01/23 07:00:27;;;;;;;12.07;7.57;;;;;;;;;;5060088;28;20300;-70
2023/01/23 07:02:57;;;;;;;16.73;7.88;;;;;;;;;;5063772;28;20098;-70
2023/01/23 07:05:23;;;;;;;12.13;8.77;;;;;;;;;;5061943;28;20091;-70
2023/01/23 07:07:51;;;;;;;13.35;7.50;;;;;;;;;;5062490;28;20048;-71
2023/01/23 07:10:17;;;;;;;9.98;7.45;;;;;;;;;;5053672;28;20045;-70
2023/01/23 07:12:43;;;;;;;13.50;7.38;;;;;;;;;;5058737;28;20033;-70
2023/01/23 07:15:09;;;;;;;11.27;7.57;;;;;;;;;;5057119;28;20036;-70
2023/01/23 07:17:35;;;;;;;17.48;8.13;;;;;;;;;;5060392;28;20044;-70
2023/01/23 07:20:01;;;;;;;14.38;8.70;;;;;;;;;;5059343;28;20494;-71
2023/01/23 07:22:28;;;;;;;14.23;8.27;;;;;;;;;;5057242;28;20052;-70
2023/01/23 07:24:54;;;;;;;12.25;7.65;;;;;;;;;;5061039;28;20033;-70
2023/01/23 07:27:20;;;;;;;20.65;9.90;;;;;;;;;;5058356;28;20042;-70
2023/01/23 07:29:46;;;;;;;13.70;9.02;;;;;;;;;;5063278;28;20041;-70
2023/01/23 07:32:12;;;;;;;13.15;8.95;;;;;;;;;;5058352;28;20103;-70
2023/01/23 07:34:38;;;;;;;9.55;7.53;;;;;;;;;;5054876;28;20109;-70
2023/01/23 07:37:05;;;;;;;12.43;7.90;;;;;;;;;;5058423;28;21531;-70
2023/01/23 07:39:31;;;;;;;15.63;8.45;;;;;;;;;;5058125;28;20052;-70
2023/01/23 07:41:57;;;;;;;12.75;8.88;;;;;;;;;;5053554;28;20505;-70
2023/01/23 07:44:23;;;;;;;14.95;8.18;;;;;;;;;;5052650;28;20045;-70
2023/01/23 07:46:49;;;;;;;13.52;8.23;;;;;;;;;;5055015;28;20072;-70
2023/01/23 07:49:15;;;;;;;12.10;8.55;;;;;;;;;;5053129;28;20222;-70
2023/01/23 07:51:42;;;;;;;14.13;9.02;;;;;;;;;;5055386;28;20041;-69
2023/01/23 07:54:08;;;;;;;13.05;8.30;;;;;;;;;;5063000;28;20036;-71
2023/01/23 07:56:34;;;;;;;16.98;9.25;;;;;;;;;;5056176;28;20095;-70
2023/01/23 07:59:01;;;;;;;11.18;7.85;;;;;;;;;;5058295;28;20037;-70
2023/01/23 08:01:27;;;;;;;14.52;8.45;;;;;;;;;;5062279;28;20040;-70
2023/01/23 08:03:53;;;;;;;10.05;7.88;;;;;;;;;;5065596;28;20036;-70
2023/01/23 08:06:19;;;;;;;12.55;7.93;;;;;;;;;;5055334;28;20056;-70
2023/01/23 08:08:49;;;;;;;13.35;8.40;;;;;;;;;;5056790;28;20498;-70
2023/01/23 08:11:15;;;;;;;17.83;9.20;;;;;;;;;;5063048;28;20494;-70
2023/01/23 08:13:41;;;;;;;15.57;9.15;;;;;;;;;;5061394;28;20438;-70
2023/01/23 08:16:08;;;;;;;13.77;8.52;;;;;;;;;;5065382;28;20094;-71
2023/01/23 08:18:34;;;;;;;12.05;8.90;;;;;;;;;;5060761;28;20076;-70
2023/01/23 08:21:02;;;;;;;13.00;7.60;;;;;;;;;;5065931;28;20120;-70
2023/01/23 08:23:29;;;;;;;14.32;8.30;;;;;;;;;;5055210;28;20049;-70
2023/01/23 08:25:56;;;;;;;12.00;8.70;;;;;;;;;;5063642;28;20494;-71
2023/01/23 08:28:23;;;;;;;12.82;8.80;;;;;;;;;;5045646;28;20177;-70
2023/01/23 08:30:49;;;;;;;15.40;9.70;;;;;;;;;;5060275;28;20036;-70
2023/01/23 08:33:16;;;;;;;15.30;10.05;;;;;;;;;;5058753;28;20032;-70
2023/01/23 08:35:49;;;;;;;16.27;9.88;;;;;;;;;;5056474;28;20116;-70
2023/01/23 08:38:16;;;;;;;17.58;8.90;;;;;;;;;;5059849;28;20083;-70
2023/01/23 08:40:42;;;;;;;12.30;8.45;;;;;;;;;;5056384;28;20075;-71
2023/01/23 08:43:10;;;;;;;14.23;8.70;;;;;;;;;;5053558;28;20464;-70
2023/01/23 08:45:37;;;;;;;20.33;11.10;;;;;;;;;;5023586;28;20056;-70
2023/01/23 08:48:03;;;;;;;12.57;7.50;;;;;;;;;;5048012;28;20136;-71
2023/01/23 08:50:29;;;;;;;11.75;7.47;;;;;;;;;;5053582;28;20569;-70
2023/01/23 08:52:55;;;;;;;13.07;9.13;;;;;;;;;;5056568;28;20036;-70
2023/01/23 08:55:21;;;;;;;14.40;8.23;;;;;;;;;;5042743;28;20037;-71
2023/01/23 08:57:47;;;;;;;16.60;8.77;;;;;;;;;;5057417;28;20039;-70
2023/01/23 09:00:14;;;;;;;10.73;7.75;;;;;;;;;;5053741;28;20036;-70
2023/01/23 09:02:40;;;;;;;13.68;9.10;;;;;;;;;;5060606;28;20032;-71
2023/01/23 09:05:06;;;;;;;11.32;9.15;;;;;;;;;;5062535;28;20044;-70
2023/01/23 09:07:35;;;;;;;15.35;9.10;;;;;;;;;;5065578;28;20205;-70
2023/01/23 09:10:01;;;;;;;14.45;9.48;;;;;;;;;;5057154;28;20554;-70
2023/01/23 09:12:27;;;;;;;16.92;9.85;;;;;;;;;;5057542;28;20033;-70
2023/01/23 09:14:53;;;;;;;23.15;13.60;;;;;;;;;;5057716;28;20440;-70
2023/01/23 09:17:20;;;;;;;15.70;10.85;;;;;;;;;;5058970;28;20067;-70
2023/01/23 09:19:46;;;;;;;14.85;9.70;;;;;;;;;;5055637;28;20262;-70
2023/01/23 09:22:12;;;;;;;19.58;10.95;;;;;;;;;;5063699;28;20150;-70
2023/01/23 09:24:38;;;;;;;15.88;10.35;;;;;;;;;;5064387;28;20043;-70
2023/01/23 09:27:04;;;;;;;16.10;9.90;;;;;;;;;;5063627;28;20518;-70
2023/01/23 09:29:30;;;;;;;17.08;11.98;;;;;;;;;;5062998;28;20047;-70
2023/01/23 09:31:57;;;;;;;19.52;11.35;;;;;;;;;;5077253;28;20079;-69
2023/01/23 09:34:23;;;;;;;15.80;10.95;;;;;;;;;;5060180;28;20037;-70
2023/01/23 09:36:49;;;;;;;18.63;12.10;;;;;;;;;;5062409;28;20666;-70
2023/01/23 09:39:15;;;;;;;16.73;11.00;;;;;;;;;;5060701;28;20043;-70
2023/01/23 09:41:44;;;;;;;12.38;8.65;;;;;;;;;;5057838;28;20065;-70
2023/01/23 09:44:28;;;;;;;14.02;9.52;;;;;;;;;;5054691;28;20394;-70
2023/01/23 09:47:01;;;;;;;11.32;7.20;;;;;;;;;;5052449;28;20155;-70
2023/01/23 09:49:36;;;;;;;12.27;6.75;;;;;;;;;;5052183;28;20037;-70
2023/01/23 09:52:05;;;;;;;15.95;8.32;;;;;;;;;;5065448;28;20037;-70
2023/01/23 09:54:31;;;;;;;15.60;8.98;;;;;;;;;;5053101;28;20471;-70
2023/01/23 09:57:00;;;;;;;13.50;8.02;;;;;;;;;;5049923;28;21346;-70
2023/01/23 09:59:35;;;;;;;19.95;8.50;;;;;;;;;;5052434;28;20517;-70
2023/01/23 10:02:01;;;;;;;13.45;8.07;;;;;;;;;;5054059;28;20380;-70
2023/01/23 10:04:28;;;;;;;10.75;7.60;;;;;;;;;;5057857;28;20036;-70
2023/01/23 10:07:13;;;;;;;13.88;9.02;;;;;;;;;;5062999;28;20050;-70
2023/01/23 10:09:51;;;;;;;10.10;7.13;;;;;;;;;;5052669;28;20049;-70
2023/01/23 10:12:28;;;;;;;14.60;7.65;;;;;;;;;;5055504;28;20110;-70
2023/01/23 10:15:14;;;;;;;9.20;6.28;;;;;;;;;;5052847;28;20040;-70
2023/01/23 10:17:59;;;;;;;11.20;6.55;;;;;;;;;;5035035;28;20049;-70
2023/01/23 10:20:29;;;;;;;8.07;5.80;;;;;;;;;;5052999;28;20494;-70
2023/01/23 10:22:55;;;;;;;8.98;6.28;;;;;;;;;;5051534;28;20063;-70
2023/01/23 10:25:23;;;;;;;11.50;6.85;;;;;;;;;;5050604;28;20051;-70
2023/01/23 10:27:50;;;;;;;8.93;6.22;;;;;;;;;;5055830;28;20048;-69
2023/01/23 10:30:17;;;;;;;10.68;6.45;;;;;;;;;;5055878;28;20383;-70
2023/01/23 10:32:48;;;;;;;9.50;5.72;;;;;;;;;;5052655;28;20399;-70
2023/01/23 10:35:19;;;;;;;9.10;5.97;;;;;;;;;;5056831;28;20040;-70
2023/01/23 10:37:45;;;;;;;10.05;5.43;;;;;;;;;;5059514;28;20064;-70
2023/01/23 10:40:13;;;;;;;8.88;5.50;;;;;;;;;;5063558;28;20123;-70
2023/01/23 10:42:39;;;;;;;6.93;5.05;;;;;;;;;;5052004;28;20037;-70
2023/01/23 10:45:06;;;;;;;7.05;4.57;;;;;;;;;;5052763;28;20063;-70
2023/01/23 10:47:42;;;;;;;6.72;4.40;;;;;;;;;;5055154;28;20432;-70
2023/01/23 10:50:09;;;;;;;7.97;4.03;;;;;;;;;;5059554;28;20086;-70
2023/01/23 10:52:37;;;;;;;7.75;4.85;;;;;;;;;;5067132;28;20558;-70
2023/01/23 10:55:05;;;;;;;9.93;4.68;;;;;;;;;;5069696;28;20127;-70
2023/01/23 10:57:37;;;;;;;6.93;4.68;;;;;;;;;;5052299;28;20033;-71
2023/01/23 11:00:19;;;;;;;7.10;3.88;;;;;;;;;;5061088;28;20544;-70
2023/01/23 11:02:45;;;;;;;4.97;3.38;;;;;;;;;;5061690;28;20079;-70
2023/01/23 11:05:30;;;;;;;6.15;4.78;;;;;;;;;;5061621;28;20040;-70
2023/01/23 11:07:57;;;;;;;7.03;3.83;;;;;;;;;;5062450;28;20128;-70
2023/01/23 11:10:23;;;;;;;5.40;3.42;;;;;;;;;;5055106;28;20124;-70
2023/01/23 11:12:50;;;;;;;6.50;3.47;;;;;;;;;;5043823;28;20052;-71
2023/01/23 11:15:25;;;;;;;5.63;3.47;;;;;;;;;;5060199;28;20375;-70
2023/01/23 11:17:52;;;;;;;6.60;3.20;;;;;;;;;;5056286;28;20041;-70
2023/01/23 11:20:23;;;;;;;4.22;2.78;;;;;;;;;;5057843;28;20037;-70
2023/01/23 11:22:59;;;;;;;4.47;3.05;;;;;;;;;;5058486;28;20590;-71
2023/01/23 11:25:28;;;;;;;5.05;2.80;;;;;;;;;;5066254;28;20066;-70
2023/01/23 11:28:02;;;;;;;3.35;2.25;;;;;;;;;;5062804;28;20040;-70
2023/01/23 11:30:35;;;;;;;2.78;2.08;;;;;;;;;;5060263;28;20059;-71
2023/01/23 11:33:08;;;;;;;3.53;2.50;;;;;;;;;;5065971;28;20044;-72
2023/01/23 11:35:53;;;;;;;3.35;2.45;;;;;;;;;;5057832;28;20078;-70
2023/01/23 11:38:22;;;;;;;5.53;1.98;;;;;;;;;;5062682;28;20044;-70
2023/01/23 11:40:48;;;;;;;4.75;2.05;;;;;;;;;;5071884;28;20033;-71
2023/01/23 11:43:15;;;;;;;3.30;2.28;;;;;;;;;;5060376;28;20033;-71
2023/01/23 11:46:07;;;;;;;3.60;2.25;;;;;;;;;;5066290;28;20098;-71
2023/01/23 11:48:33;;;;;;;3.38;1.85;;;;;;;;;;5056943;28;20075;-71
2023/01/23 11:51:16;;;;;;;2.33;2.10;;;;;;;;;;5061542;28;20149;-70
2023/01/23 11:54:00;;;;;;;3.63;2.67;;;;;;;;;;5060815;28;20402;-70
2023/01/23 11:56:26;;;;;;;2.72;2.10;;;;;;;;;;5064248;28;20119;-71
2023/01/23 11:59:13;;;;;;;4.70;2.92;;;;;;;;;;5058373;28;20048;-70
2023/01/23 12:01:57;;;;;;;5.55;3.38;;;;;;;;;;5060406;28;20040;-70
2023/01/23 12:04:42;;;;;;;4.82;3.00;;;;;;;;;;5056685;28;20102;-70
2023/01/23 12:07:15;;;;;;;4.30;2.70;;;;;;;;;;5063549;28;20033;-70
2023/01/23 12:09:41;;;;;;;4.55;3.22;;;;;;;;;;5059660;28;20061;-70
2023/01/23 12:12:32;;;;;;;6.13;3.65;;;;;;;;;;5065832;28;20043;-70
2023/01/23 12:15:22;;;;;;;5.32;4.03;;;;;;;;;;5062102;28;20041;-70
2023/01/23 12:17:55;;;;;;;5.03;3.63;;;;;;;;;;5063829;28;20066;-70
2023/01/23 12:20:21;;;;;;;4.63;3.47;;;;;;;;;;5067395;28;20052;-70
2023/01/23 12:22:50;;;;;;;5.07;3.10;;;;;;;;;;5061982;28;20056;-70
2023/01/23 12:25:35;;;;;;;5.82;3.17;;;;;;;;;;5064536;28;20067;-70
2023/01/23 12:28:20;;;;;;;5.53;4.43;;;;;;;;;;5064569;28;20052;-70
2023/01/23 12:30:52;;;;;;;5.70;4.05;;;;;;;;;;5065728;28;20036;-71
2023/01/23 12:33:27;;;;;;;5.68;4.00;;;;;;;;;;5055813;28;20399;-71
2023/01/23 12:36:12;;;;;;;5.80;4.35;;;;;;;;;;5058129;28;20028;-71
2023/01/23 12:38:41;;;;;;;5.18;3.95;;;;;;;;;;5067549;28;20391;-70
2023/01/23 12:41:26;;;;;;;6.28;4.25;;;;;;;;;;5063773;28;20040;-71
2023/01/23 12:43:59;;;;;;;6.05;4.55;;;;;;;;;;5066691;28;20123;-71
2023/01/23 12:46:40;;;;;;;7.68;4.65;;;;;;;;;;5066651;28;20032;-70
2023/01/23 12:49:18;;;;;;;4.55;3.28;;;;;;;;;;5063037;28;20041;-70
2023/01/23 12:51:47;;;;;;;5.30;3.90;;;;;;;;;;5066046;28;20029;-70
2023/01/23 12:54:17;;;;;;;5.20;3.83;;;;;;;;;;5067833;28;20174;-71
2023/01/23 12:56:44;;;;;;;5.53;3.80;;;;;;;;;;5055438;28;20074;-71
2023/01/23 12:59:14;;;;;;;5.75;4.07;;;;;;;;;;5059706;28;20033;-70
2023/01/23 13:01:59;;;;;;;8.57;4.75;;;;;;;;;;5066882;28;20505;-71
2023/01/23 13:04:44;;;;;;;6.05;3.97;;;;;;;;;;5067819;28;20064;-70
2023/01/23 13:07:22;;;;;;;5.80;4.60;;;;;;;;;;5083365;28;20127;-71
2023/01/23 13:10:16;;;;;;;7.18;5.38;;;;;;;;;;5064233;28;21418;-70
2023/01/23 13:12:42;;;;;;;7.03;5.32;;;;;;;;;;5064453;28;20036;-70
2023/01/23 13:15:22;;;;;;;10.32;5.97;;;;;;;;;;5055330;28;20041;-71
2023/01/23 13:17:48;;;;;;;8.73;5.95;;;;;;;;;;5054351;28;20053;-70
2023/01/23 13:23:32;;;;;;;9.23;5.68;;;;;;;;;;5061558;28;20088;-71
2023/01/23 13:26:21;;;;;;;9.05;5.18;;;;;;;;;;5063525;28;20072;-70
2023/01/23 13:28:54;;;;;;;6.03;5.22;;;;;;;;;;5063880;28;20048;-70
2023/01/23 13:31:20;;;;;;;;;;;;;;;;;;5067646;28;20354;-71
2023/01/23 13:33:46;;;;;;;8.02;5.53;;;;;;;;;;5065237;28;19916;-70
2023/01/23 13:36:23;;;;;;;8.88;5.30;;;;;;;;;;5061482;28;20048;-71
2023/01/23 13:39:08;;;;;;;8.05;5.32;;;;;;;;;;5062388;28;20507;-70
2023/01/23 13:41:35;;;;;;;11.20;5.63;;;;;;;;;;5057277;28;20036;-70
2023/01/23 13:44:03;;;;;;;6.85;5.13;;;;;;;;;;5064154;28;20083;-70
2023/01/23 13:46:41;;;;;;;10.98;7.05;;;;;;;;;;5053624;28;20087;-70
2023/01/23 13:51:59;;;;;;;7.57;5.45;;;;;;;;;;5063222;28;20524;-70
2023/01/23 13:57:16;;;;;;;8.45;5.70;;;;;;;;;;5063436;28;20123;-70
2023/01/23 13:59:46;;;;;;;7.53;4.88;;;;;;;;;;5061312;28;20148;-70
2023/01/23 14:05:12;;;;;;;8.13;6.78;;;;;;;;;;5061949;28;20100;-71
2023/01/23 14:07:42;;;;;;;8.32;6.35;;;;;;;;;;5057952;28;20040;-70
2023/01/23 14:10:23;;;;;;;9.07;6.45;;;;;;;;;;5058339;28;20047;-70
2023/01/23 14:12:49;;;;;;;11.15;6.32;;;;;;;;;;5054758;28;20078;-71
2023/01/23 14:18:16;;;;;;;9.55;6.80;;;;;;;;;;5055594;28;20126;-71
2023/01/23 14:20:42;;;;;;;14.90;6.57;;;;;;;;;;5060676;28;20169;-70
2023/01/23 14:23:17;;;;;;;9.48;5.93;;;;;;;;;;5040883;28;20063;-71
2023/01/23 14:25:43;;;;;;;9.20;6.20;;;;;;;;;;5057264;28;20059;-70
2023/01/23 14:28:16;;;;;;;7.18;5.97;;;;;;;;;;5057851;28;20123;-70
2023/01/23 14:30:42;;;;;;;;;;;;;;;;;;5054785;28;20119;-70
2023/01/23 14:33:16;;;;;;;6.78;5.40;;;;;;;;;;5052688;28;19993;-70
2023/01/23 14:35:43;;;;;;;8.73;5.13;;;;;;;;;;5069453;28;20039;-71
2023/01/23 14:38:09;;;;;;;8.02;5.95;;;;;;;;;;5064221;28;20070;-70
2023/01/23 14:40:35;;;;;;;8.07;5.50;;;;;;;;;;5064071;28;20137;-70
2023/01/23 14:43:16;;;;;;;5.50;4.32;;;;;;;;;;5066824;28;20421;-70
2023/01/23 14:45:46;;;;;;;6.57;4.93;;;;;;;;;;5060005;28;20045;-70
2023/01/23 14:48:14;;;;;;;7.57;5.55;;;;;;;;;;5066643;28;20048;-70
2023/01/23 14:50:40;;;;;;;6.75;4.53;;;;;;;;;;5059853;28;20063;-70
2023/01/23 14:53:12;;;;;;;5.68;4.05;;;;;;;;;;5062538;28;20043;-70
2023/01/23 14:55:40;;;;;;;8.07;4.60;;;;;;;;;;5063082;28;20040;-70
2023/01/23 14:58:06;;;;;;;5.00;3.63;;;;;;;;;;5058827;28;20125;-69
2023/01/23 15:00:33;;;;;;;5.93;4.30;;;;;;;;;;5029783;28;20521;-70
2023/01/23 15:03:00;;;;;;;6.35;4.20;;;;;;;;;;5064679;28;20483;-70
2023/01/23 15:05:27;;;;;;;5.80;4.53;;;;;;;;;;5062329;28;20037;-70
2023/01/23 15:07:55;;;;;;;6.75;4.28;;;;;;;;;;5067081;28;20100;-70